createdAt,value
2024-04-24T00:01:06.815Z,95377.33
2024-04-24T00:03:46.596Z,95380.77
2024-04-24T00:06:14.258Z,95377.52
2024-04-24T00:08:42.099Z,95374.80
2024-04-24T00:11:09.797Z,95373.82
2024-04-24T00:13:37.478Z,95370.11
2024-04-24T00:16:05.291Z,95368.34
2024-04-24T00:18:33.073Z,95361.64
2024-04-24T00:21:00.769Z,95353.23
2024-04-24T00:23:28.506Z,95350.60
2024-04-24T00:25:57.886Z,95351.48
2024-04-24T00:28:25.495Z,95347.73
2024-04-24T00:31:00.240Z,95353.32
2024-04-24T00:33:28.199Z,95346.80
2024-04-24T00:35:55.870Z,95345.27
2024-04-24T00:38:23.478Z,95347.35
2024-04-24T00:40:51.160Z,95340.71
2024-04-24T00:43:19.022Z,95333.11
2024-04-24T00:45:48.078Z,95327.95
2024-04-24T00:48:16.145Z,95318.52
2024-04-24T00:50:44.684Z,95317.70
2024-04-24T00:53:12.403Z,95314.06
2024-04-24T00:55:40.714Z,95311.57
2024-04-24T00:58:10.286Z,95312.65
2024-04-24T01:00:40.736Z,95310.55
2024-04-24T01:03:10.355Z,95308.12
2024-04-24T01:05:38.717Z,95309.48
2024-04-24T01:08:06.653Z,95308.05
2024-04-24T01:11:33.934Z,95306.16
2024-04-24T01:14:06.570Z,95306.93
2024-04-24T01:16:38.449Z,95301.69
2024-04-24T01:19:59.526Z,95299.02
2024-04-24T01:22:40.267Z,95292.67
2024-04-24T01:25:20.769Z,95289.90
2024-04-24T01:27:48.564Z,95288.08
2024-04-24T01:30:16.298Z,95281.20
2024-04-24T01:32:44.018Z,95278.30
2024-04-24T01:35:11.889Z,95273.02
2024-04-24T01:37:39.524Z,95269.39
2024-04-24T01:40:07.892Z,95262.16
2024-04-24T01:42:35.523Z,95259.38
2024-04-24T01:45:03.238Z,95261.37
2024-04-24T01:47:31.495Z,95254.40
2024-04-24T01:49:59.327Z,95253.23
2024-04-24T01:52:27.673Z,95249.80
2024-04-24T01:54:55.450Z,95244.63
2024-04-24T01:57:23.352Z,95243.14
2024-04-24T01:59:50.973Z,95243.02
2024-04-24T02:02:18.903Z,95243.33
2024-04-24T02:04:46.651Z,95243.81
2024-04-24T02:07:14.272Z,95239.46
2024-04-24T02:09:41.906Z,95237.77
2024-04-24T02:12:15.890Z,95235.52
2024-04-24T02:14:44.744Z,95233.58
2024-04-24T02:17:12.481Z,95230.42
2024-04-24T02:19:42.373Z,95233.02
2024-04-24T02:22:10.808Z,95233.52
2024-04-24T02:24:57.074Z,95232.21
2024-04-24T02:27:24.685Z,95229.86
2024-04-24T02:29:56.365Z,95228.30
2024-04-24T02:32:24.862Z,95224.17
2024-04-24T02:34:52.834Z,95223.53
2024-04-24T02:37:21.202Z,95223.58
2024-04-24T02:39:48.791Z,95220.66
2024-04-24T02:42:16.428Z,95218.33
2024-04-24T02:44:44.017Z,95214.09
2024-04-24T02:47:12.326Z,95211.20
2024-04-24T02:49:40.019Z,95205.48
2024-04-24T02:52:08.138Z,95202.36
2024-04-24T02:54:35.752Z,95201.65
2024-04-24T02:57:03.441Z,95199.18
2024-04-24T02:59:31.039Z,95197.33
2024-04-24T03:01:58.692Z,95195.64
2024-04-24T03:04:26.356Z,95197.23
2024-04-24T03:06:54.084Z,95195.84
2024-04-24T03:09:21.678Z,95192.50
2024-04-24T03:11:49.410Z,95190.52
2024-04-24T03:14:22.228Z,95191.88
2024-04-24T03:16:50.254Z,95185.98
2024-04-24T03:19:17.940Z,95180.98
2024-04-24T03:21:45.591Z,95179.80
2024-04-24T03:24:13.314Z,95175.95
2024-04-24T03:26:40.924Z,95174.20
2024-04-24T03:29:08.597Z,95167.80
2024-04-24T03:31:36.282Z,95168.19
2024-04-24T03:34:03.949Z,95165.08
2024-04-24T03:36:31.658Z,95161.98
2024-04-24T03:39:00.224Z,95160.45
2024-04-24T03:41:28.008Z,95156.52
2024-04-24T03:43:56.007Z,95155.85
2024-04-24T03:46:23.619Z,95151.75
2024-04-24T03:48:51.337Z,95150.22
2024-04-24T03:51:19.217Z,95148.51
2024-04-24T03:53:46.842Z,95141.91
2024-04-24T03:56:14.603Z,95140.02
2024-04-24T03:58:42.244Z,95139.89
2024-04-24T04:01:09.906Z,95138.38
2024-04-24T04:03:38.505Z,95136.39
2024-04-24T04:06:06.553Z,95136.83
2024-04-24T04:08:34.207Z,95138.87
2024-04-24T04:11:01.815Z,95137.32
2024-04-24T04:13:29.628Z,95138.25
2024-04-24T04:15:57.472Z,95133.29
2024-04-24T04:18:25.239Z,95134.27
2024-04-24T04:20:52.923Z,95133.05
2024-04-24T04:23:20.635Z,95131.80
2024-04-24T04:25:48.279Z,95129.47
2024-04-24T04:28:15.924Z,95123.70
2024-04-24T04:30:43.587Z,95121.77
2024-04-24T04:33:11.308Z,95119.60
2024-04-24T04:35:38.870Z,95115.70
2024-04-24T04:38:06.483Z,95114.21
2024-04-24T04:40:34.106Z,95112.27
2024-04-24T04:43:01.722Z,95112.46
2024-04-24T04:45:29.357Z,95111.42
2024-04-24T04:47:57.097Z,95109.17
2024-04-24T04:50:24.873Z,95109.44
2024-04-24T04:52:52.648Z,95105.02
2024-04-24T04:55:20.286Z,95103.31
2024-04-24T04:57:48.354Z,95099.05
2024-04-24T05:00:16.342Z,95099.75
2024-04-24T05:02:45.783Z,95096.65
2024-04-24T05:05:13.877Z,95094.42
2024-04-24T05:07:41.512Z,95089.23
2024-04-24T05:10:09.271Z,95088.52
2024-04-24T05:12:37.244Z,95085.54
2024-04-24T05:15:05.300Z,95082.70
2024-04-24T05:17:33.196Z,95076.39
2024-04-24T05:20:01.232Z,95074.14
2024-04-24T05:22:34.528Z,95068.67
2024-04-24T05:25:02.434Z,95063.95
2024-04-24T05:27:49.585Z,95059.52
2024-04-24T05:33:14.784Z,95056.58
2024-04-24T05:35:42.536Z,95050.63
2024-04-24T05:38:14.205Z,95045.98
2024-04-24T05:40:42.204Z,95043.55
2024-04-24T05:43:11.928Z,95040.09
2024-04-24T05:45:40.882Z,95037.57
2024-04-24T05:48:08.723Z,95029.02
2024-04-24T05:50:36.478Z,95030.55
2024-04-24T05:53:04.391Z,95029.86
2024-04-24T05:55:32.035Z,95032.45
2024-04-24T05:57:59.669Z,95031.20
2024-04-24T06:00:27.318Z,95030.84
2024-04-24T06:02:57.867Z,95031.67
2024-04-24T06:05:25.685Z,95028.77
2024-04-24T06:07:54.106Z,95027.20
2024-04-24T06:10:21.737Z,95022.86
2024-04-24T06:12:49.368Z,95020.61
2024-04-24T06:15:17.004Z,95021.28
2024-04-24T06:17:45.040Z,95021.13
2024-04-24T06:20:19.183Z,95015.48
2024-04-24T06:22:46.874Z,95017.83
2024-04-24T06:25:15.648Z,95021.50
2024-04-24T06:27:43.263Z,95016.27
2024-04-24T06:30:11.047Z,95012.30
2024-04-24T06:32:38.829Z,95013.74
2024-04-24T06:35:06.660Z,95013.69
2024-04-24T06:37:34.349Z,95011.02
2024-04-24T06:40:01.968Z,95014.52
2024-04-24T06:42:29.715Z,95015.85
2024-04-24T06:44:57.380Z,95015.81
2024-04-24T06:47:25.102Z,95018.27
2024-04-24T06:49:52.849Z,95018.73
2024-04-24T06:52:20.528Z,95011.86
2024-04-24T06:54:48.180Z,95015.50
2024-04-24T06:57:17.982Z,95011.76
2024-04-24T06:59:46.047Z,95013.36
2024-04-24T07:02:13.842Z,95013.08
2024-04-24T07:04:41.963Z,95014.59
2024-04-24T07:07:09.574Z,95014.08
2024-04-24T07:09:37.692Z,95009.65
2024-04-24T07:12:21.621Z,95007.79
2024-04-24T07:14:50.036Z,95007.15
2024-04-24T07:17:17.796Z,95002.48
2024-04-24T07:19:45.462Z,94998.31
2024-04-24T07:22:13.922Z,94997.31
2024-04-24T07:24:41.624Z,95000.27
2024-04-24T07:27:09.278Z,95001.23
2024-04-24T07:29:37.028Z,95001.95
2024-04-24T07:32:05.129Z,95002.43
2024-04-24T07:34:32.817Z,95003.02
2024-04-24T07:37:00.710Z,94995.50
2024-04-24T07:39:28.445Z,94998.47
2024-04-24T07:41:56.535Z,94995.19
2024-04-24T07:44:24.245Z,94998.67
2024-04-24T07:46:51.943Z,95000.58
2024-04-24T07:49:19.605Z,94999.80
2024-04-24T07:51:47.282Z,94999.54
2024-04-24T07:54:14.954Z,94996.30
2024-04-24T07:56:42.607Z,94996.55
2024-04-24T07:59:10.384Z,94991.99
2024-04-24T08:01:38.108Z,94990.80
2024-04-24T08:04:05.880Z,94983.70
2024-04-24T08:06:33.629Z,94982.45
2024-04-24T08:09:01.344Z,94983.58
2024-04-24T08:11:29.110Z,94980.39
2024-04-24T08:13:56.881Z,94982.39
2024-04-24T08:16:24.500Z,94984.38
2024-04-24T08:18:52.229Z,94984.03
2024-04-24T08:21:19.914Z,94984.45
2024-04-24T08:23:47.805Z,94983.97
2024-04-24T08:26:15.561Z,94980.21
2024-04-24T08:28:43.377Z,94982.09
2024-04-24T08:31:11.181Z,94978.53
2024-04-24T08:33:39.017Z,94977.86
2024-04-24T08:36:11.120Z,94978.30
2024-04-24T08:38:39.654Z,94977.30
2024-04-24T08:41:07.275Z,94977.60
2024-04-24T08:43:37.392Z,94974.70
2024-04-24T08:46:06.674Z,94977.70
2024-04-24T08:48:41.837Z,94974.02
2024-04-24T08:51:11.468Z,94971.44
2024-04-24T08:54:05.007Z,94968.64
2024-04-24T08:56:40.307Z,94967.48
2024-04-24T08:59:19.713Z,94962.73
2024-04-24T09:01:57.305Z,94963.77
2024-04-24T09:04:26.128Z,94964.59
2024-04-24T09:06:55.551Z,94963.39
2024-04-24T09:09:25.420Z,94963.03
2024-04-24T09:16:14.462Z,94966.45
2024-04-24T09:18:42.209Z,94966.88
2024-04-24T09:21:10.041Z,94965.86
2024-04-24T09:23:37.670Z,94963.41
2024-04-24T09:26:06.282Z,94961.86
2024-04-24T09:28:33.951Z,94959.43
2024-04-24T09:31:04.541Z,94955.52
2024-04-24T09:33:32.254Z,94952.38
2024-04-24T09:36:01.089Z,94951.72
2024-04-24T09:38:31.685Z,94952.73
2024-04-24T09:41:03.441Z,94950.39
2024-04-24T09:43:31.490Z,94952.30
2024-04-24T09:45:59.578Z,94947.58
2024-04-24T09:48:29.620Z,94945.54
2024-04-24T09:50:57.900Z,94942.02
2024-04-24T09:53:25.645Z,94943.69
2024-04-24T09:56:05.324Z,94937.33
2024-04-24T09:58:35.368Z,94936.46
2024-04-24T10:01:07.353Z,94934.61
2024-04-24T10:03:38.142Z,94932.93
2024-04-24T10:06:08.947Z,94929.27
2024-04-24T10:08:40.073Z,94928.08
2024-04-24T10:11:11.747Z,94930.24
2024-04-24T10:13:42.499Z,94926.84
2024-04-24T10:16:11.146Z,94929.32
2024-04-24T10:18:41.889Z,94928.33
2024-04-24T10:21:10.911Z,94930.62
2024-04-24T10:23:42.154Z,94929.73
2024-04-24T10:26:10.735Z,94926.80
2024-04-24T10:28:41.837Z,94929.08
2024-04-24T10:31:09.752Z,94930.01
2024-04-24T10:33:37.711Z,94930.30
2024-04-24T10:36:06.382Z,94928.52
2024-04-24T10:38:34.697Z,94929.84
2024-04-24T10:41:03.114Z,94931.42
2024-04-24T10:43:34.578Z,94931.52
2024-04-24T10:46:04.353Z,94932.19
2024-04-24T10:48:55.969Z,94930.36
2024-04-24T10:51:31.991Z,94928.02
2024-04-24T10:54:14.857Z,94924.69
2024-04-24T10:56:43.308Z,94925.61
2024-04-24T10:59:11.626Z,94921.67
2024-04-24T11:01:53.344Z,94919.09
2024-04-24T11:04:26.688Z,94918.97
2024-04-24T11:06:55.325Z,94919.32
2024-04-24T11:09:24.463Z,94922.35
2024-04-24T11:11:54.555Z,94920.11
2024-04-24T11:14:22.392Z,94919.39
2024-04-24T11:16:57.361Z,94921.08
2024-04-24T11:19:25.215Z,94922.58
2024-04-24T11:21:52.861Z,94922.25
2024-04-24T11:24:33.777Z,94923.08
2024-04-24T11:27:02.181Z,94922.73
2024-04-24T11:29:38.852Z,94926.21
2024-04-24T11:32:08.085Z,94925.77
2024-04-24T11:34:39.177Z,94919.98
2024-04-24T11:37:07.442Z,94923.61
2024-04-24T11:39:36.064Z,94920.58
2024-04-24T11:42:04.191Z,94919.93
2024-04-24T11:44:33.442Z,94916.35
2024-04-24T11:47:01.380Z,94915.15
2024-04-24T11:49:29.317Z,94911.65
2024-04-24T11:51:58.491Z,94911.63
2024-04-24T11:54:29.078Z,94912.27
2024-04-24T11:57:01.056Z,94908.52
2024-04-24T11:59:30.476Z,94908.05
2024-04-24T12:01:58.460Z,94906.73
2024-04-24T12:04:26.342Z,94906.41
2024-04-24T12:06:54.218Z,94905.49
2024-04-24T12:09:21.899Z,94905.64
2024-04-24T12:11:50.412Z,94904.23
2024-04-24T12:14:19.518Z,94903.58
2024-04-24T12:16:47.382Z,94903.15
2024-04-24T12:19:15.064Z,94907.74
2024-04-24T12:21:43.246Z,94908.06
2024-04-24T12:24:10.887Z,94908.58
2024-04-24T12:26:38.589Z,94904.01
2024-04-24T12:29:06.249Z,94906.02
2024-04-24T12:31:33.945Z,94909.44
2024-04-24T12:34:01.800Z,94904.05
2024-04-24T12:36:29.555Z,94900.95
2024-04-24T12:38:57.143Z,94900.56
2024-04-24T12:41:24.916Z,94901.11
2024-04-24T12:43:52.631Z,94901.15
2024-04-24T12:46:20.393Z,94897.34
2024-04-24T12:48:57.028Z,94897.13
2024-04-24T12:51:25.997Z,94892.67
2024-04-24T12:53:54.233Z,94896.84
2024-04-24T12:56:21.888Z,94891.96
2024-04-24T12:58:50.876Z,94886.70
2024-04-24T13:01:19.570Z,94884.53
2024-04-24T13:03:47.973Z,94886.71
2024-04-24T13:06:23.354Z,94882.85
2024-04-24T13:08:51.990Z,94884.13
2024-04-24T13:11:19.734Z,94881.91
2024-04-24T13:13:47.589Z,94881.48
2024-04-24T13:16:15.251Z,94881.38
2024-04-24T13:18:43.830Z,94877.59
2024-04-24T13:21:12.079Z,94876.46
2024-04-24T13:23:39.747Z,94875.60
2024-04-24T13:26:07.400Z,94874.85
2024-04-24T13:28:35.035Z,94873.66
2024-04-24T13:31:06.254Z,94872.41
2024-04-24T13:33:35.491Z,94869.50
2024-04-24T13:36:03.701Z,94872.30
2024-04-24T13:38:31.281Z,94870.58
2024-04-24T13:41:07.584Z,94874.98
2024-04-24T13:43:35.282Z,94870.05
2024-04-24T13:46:02.915Z,94872.52
2024-04-24T13:48:32.897Z,94867.69
2024-04-24T13:51:01.178Z,94867.19
2024-04-24T13:53:28.954Z,94868.10
2024-04-24T13:55:57.023Z,94866.89
2024-04-24T13:58:24.704Z,94870.58
2024-04-24T14:00:52.436Z,94871.39
2024-04-24T14:03:20.287Z,94870.30
2024-04-24T14:05:50.859Z,94873.41
2024-04-24T14:08:18.568Z,94875.39
2024-04-24T14:10:46.395Z,94875.65
2024-04-24T14:13:14.447Z,94876.69
2024-04-24T14:15:42.057Z,94877.26
2024-04-24T14:18:10.055Z,94881.33
2024-04-24T14:20:38.059Z,94880.20
2024-04-24T14:23:05.986Z,94882.05
2024-04-24T14:25:35.612Z,94878.88
2024-04-24T14:28:03.830Z,94882.11
2024-04-24T14:30:31.434Z,94884.89
2024-04-24T14:32:59.207Z,94880.09
2024-04-24T14:35:27.086Z,94881.55
2024-04-24T14:37:54.734Z,94880.26
2024-04-24T14:40:22.341Z,94880.88
2024-04-24T14:42:49.990Z,94875.61
2024-04-24T14:45:17.659Z,94876.40
2024-04-24T14:47:46.465Z,94878.02
2024-04-24T14:50:15.043Z,94878.41
2024-04-24T14:52:42.776Z,94876.00
2024-04-24T14:55:10.565Z,94880.38
2024-04-24T14:57:38.268Z,94880.52
2024-04-24T15:00:06.681Z,94875.95
2024-04-24T15:02:34.355Z,94878.21
2024-04-24T15:05:02.333Z,94873.30
2024-04-24T15:07:30.208Z,94871.09
2024-04-24T15:09:57.928Z,94871.30
2024-04-24T15:12:25.620Z,94871.40
2024-04-24T15:14:53.839Z,94864.71
2024-04-24T15:17:21.746Z,94871.09
2024-04-24T15:19:49.372Z,94864.27
2024-04-24T15:22:17.399Z,94867.82
2024-04-24T15:24:45.300Z,94868.59
2024-04-24T15:27:13.211Z,94868.92
2024-04-24T15:29:40.912Z,94868.89
2024-04-24T15:32:08.651Z,94869.17
2024-04-24T15:34:36.984Z,94869.77
2024-04-24T15:37:06.808Z,94871.11
2024-04-24T15:39:34.599Z,94871.30
2024-04-24T15:42:03.501Z,94867.92
2024-04-24T15:44:33.392Z,94866.47
2024-04-24T15:47:01.658Z,94865.81
2024-04-24T15:49:29.339Z,94867.23
2024-04-24T15:51:57.175Z,94866.13
2024-04-24T15:54:24.971Z,94866.44
2024-04-24T15:56:52.562Z,94862.73
2024-04-24T15:59:20.279Z,94867.13
2024-04-24T16:05:51.149Z,94863.91
2024-04-24T16:08:18.820Z,94862.30
2024-04-24T16:10:48.275Z,94861.70
2024-04-24T16:13:16.007Z,94858.54
2024-04-24T16:15:43.814Z,94860.29
2024-04-24T16:18:11.503Z,94859.45
2024-04-24T16:20:39.151Z,94856.81
2024-04-24T16:23:06.869Z,94857.93
2024-04-24T16:25:34.662Z,94856.55
2024-04-24T16:28:02.350Z,94855.90
2024-04-24T16:30:30.006Z,94856.17
2024-04-24T16:32:57.843Z,94852.98
2024-04-24T16:35:25.644Z,94853.26
2024-04-24T16:37:53.523Z,94855.06
2024-04-24T16:40:21.188Z,94849.42
2024-04-24T16:42:48.866Z,94851.11
2024-04-24T16:45:16.599Z,94849.40
2024-04-24T16:47:44.364Z,94851.59
2024-04-24T16:50:12.153Z,94855.84
2024-04-24T16:52:39.874Z,94857.16
2024-04-24T16:55:08.694Z,94859.88
2024-04-24T16:57:37.729Z,94863.55
2024-04-24T17:00:07.803Z,94863.84
2024-04-24T17:02:35.676Z,94870.35
2024-04-24T17:05:07.839Z,94871.36
2024-04-24T17:07:35.550Z,94874.13
2024-04-24T17:10:03.365Z,94876.60
2024-04-24T17:12:31.040Z,94880.49
2024-04-24T17:14:58.928Z,94879.70
2024-04-24T17:17:26.789Z,94882.34
2024-04-24T17:19:54.558Z,94884.95
2024-04-24T17:22:22.252Z,94885.98
2024-04-24T17:24:49.923Z,94891.02
2024-04-24T17:27:18.115Z,94891.86
2024-04-24T17:29:45.752Z,94895.42
2024-04-24T17:32:13.934Z,94897.58
2024-04-24T17:34:42.256Z,94899.27
2024-04-24T17:37:09.972Z,94897.34
2024-04-24T17:39:37.664Z,94903.77
2024-04-24T17:42:05.416Z,94907.65
2024-04-24T17:44:33.127Z,94907.34
2024-04-24T17:47:00.871Z,94909.09
2024-04-24T17:49:28.605Z,94912.39
2024-04-24T17:51:56.286Z,94913.36
2024-04-24T17:54:24.124Z,94915.77
2024-04-24T17:56:51.854Z,94918.52
2024-04-24T17:59:19.756Z,94921.66
2024-04-24T18:01:47.459Z,94921.88
2024-04-24T18:07:33.404Z,94929.89
2024-04-24T18:10:03.176Z,94932.17
2024-04-24T18:12:35.560Z,94935.30
2024-04-24T18:15:12.895Z,94940.05
2024-04-24T18:17:45.439Z,94943.85
2024-04-24T18:20:13.143Z,94946.09
2024-04-24T18:22:42.095Z,94950.73
2024-04-24T18:25:09.775Z,94951.23
2024-04-24T18:27:37.470Z,94952.90
2024-04-24T18:30:06.623Z,94954.64
2024-04-24T18:32:35.183Z,94958.45
2024-04-24T18:35:02.934Z,94961.87
2024-04-24T18:37:30.601Z,94963.44
2024-04-24T18:39:58.445Z,94969.58
2024-04-24T18:42:26.246Z,94966.79
2024-04-24T18:44:53.888Z,94967.94
2024-04-24T18:47:21.772Z,94972.63
2024-04-24T18:49:49.574Z,94974.86
2024-04-24T18:52:17.631Z,94977.55
2024-04-24T18:54:45.425Z,94980.71
2024-04-24T18:57:13.075Z,94983.38
2024-04-24T19:00:00.234Z,94986.86
2024-04-24T19:02:28.475Z,94989.41
2024-04-24T19:04:56.423Z,94991.30
2024-04-24T19:07:24.276Z,94988.92
2024-04-24T19:09:52.574Z,94995.30
2024-04-24T19:12:20.373Z,94998.88
2024-04-24T19:14:49.259Z,94998.40
2024-04-24T19:17:19.952Z,94999.71
2024-04-24T19:19:49.081Z,94999.63
2024-04-24T19:22:17.799Z,95002.45
2024-04-24T19:24:45.997Z,95002.98
2024-04-24T19:27:16.449Z,95004.87
2024-04-24T19:30:18.571Z,95007.47
2024-04-24T19:32:46.788Z,95007.81
2024-04-24T19:35:15.193Z,95006.59
2024-04-24T19:37:43.142Z,95005.64
2024-04-24T19:40:11.150Z,95003.85
2024-04-24T19:42:39.351Z,95002.45
2024-04-24T19:45:07.279Z,95010.66
2024-04-24T19:48:01.697Z,95010.02
2024-04-24T19:50:32.702Z,95012.44
2024-04-24T19:53:01.291Z,95010.46
2024-04-24T19:55:31.175Z,95009.94
2024-04-24T19:57:58.822Z,95008.95
2024-04-24T20:00:26.548Z,95007.78
2024-04-24T20:02:54.268Z,95009.13
2024-04-24T20:05:22.025Z,95008.30
2024-04-24T20:07:49.831Z,95012.35
2024-04-24T20:10:17.643Z,95010.19
2024-04-24T20:12:52.267Z,95012.10
2024-04-24T20:15:21.303Z,95011.48
2024-04-24T20:17:58.538Z,95008.59
2024-04-24T20:20:26.543Z,95008.95
2024-04-24T20:22:54.261Z,95008.09
2024-04-24T20:25:21.862Z,95009.14
2024-04-24T20:28:10.444Z,95012.45
2024-04-24T20:34:01.109Z,95011.90
2024-04-24T20:36:38.099Z,95017.45
2024-04-24T20:39:09.796Z,95014.58
2024-04-24T20:41:41.271Z,95016.86
2024-04-24T20:44:21.627Z,95017.42
2024-04-24T20:46:56.752Z,95015.13
2024-04-24T20:49:24.380Z,95018.38
2024-04-24T20:51:52.057Z,95016.91
2024-04-24T20:54:20.074Z,95018.50
2024-04-24T20:56:48.465Z,95020.95
2024-04-24T20:59:17.038Z,95018.20
2024-04-24T21:01:44.695Z,95017.52
2024-04-24T21:04:12.339Z,95016.80
2024-04-24T21:06:39.987Z,95016.41
2024-04-24T21:09:07.869Z,95014.70
2024-04-24T21:11:35.731Z,95008.96
2024-04-24T21:14:03.469Z,95015.17
2024-04-24T21:16:32.156Z,95016.93
2024-04-24T21:18:59.830Z,95021.77
2024-04-24T21:21:27.514Z,95023.54
2024-04-24T21:23:55.200Z,95022.88
2024-04-24T21:26:23.086Z,95022.41
2024-04-24T21:28:50.722Z,95022.79
2024-04-24T21:31:18.498Z,95020.55
2024-04-24T21:33:46.766Z,95021.09
2024-04-24T21:36:14.433Z,95021.19
2024-04-24T21:38:42.141Z,95022.22
2024-04-24T21:41:23.378Z,95022.76
2024-04-24T21:43:52.184Z,95019.34
2024-04-24T21:46:20.248Z,95022.92
2024-04-24T21:48:48.353Z,95021.61
2024-04-24T21:51:16.187Z,95021.88
2024-04-24T21:53:44.033Z,95022.98
2024-04-24T21:56:11.699Z,95024.77
2024-04-24T21:58:40.837Z,95024.84
2024-04-24T22:01:09.081Z,95026.80
2024-04-24T22:03:37.048Z,95029.98
2024-04-24T22:06:06.029Z,95029.45
2024-04-24T22:08:33.967Z,95030.66
2024-04-24T22:11:01.736Z,95027.23
2024-04-24T22:13:31.059Z,95026.08
2024-04-24T22:15:59.732Z,95023.48
2024-04-24T22:18:27.557Z,95023.02
2024-04-24T22:20:56.961Z,95024.11
2024-04-24T22:23:24.639Z,95019.63
2024-04-24T22:25:54.158Z,95019.81
2024-04-24T22:28:21.952Z,95020.39
2024-04-24T22:30:50.442Z,95020.71
2024-04-24T22:33:20.189Z,95018.29
2024-04-24T22:36:20.459Z,95018.98
2024-04-24T22:39:24.670Z,95019.34
2024-04-24T22:45:07.487Z,95022.29
2024-04-24T22:47:38.657Z,95022.27
2024-04-24T22:50:13.264Z,95019.49
2024-04-24T22:52:45.575Z,95024.83
2024-04-24T22:55:13.337Z,95023.73
2024-04-24T22:57:55.821Z,95023.63
2024-04-24T23:00:23.785Z,95024.13
2024-04-24T23:02:51.565Z,95018.39
2024-04-24T23:05:19.384Z,95021.84
2024-04-24T23:07:47.022Z,95019.83
2024-04-24T23:10:14.775Z,95020.59
2024-04-24T23:12:42.399Z,95019.27
2024-04-24T23:15:10.177Z,95024.23
2024-04-24T23:17:38.136Z,95021.49
2024-04-24T23:20:06.367Z,95024.76
2024-04-24T23:22:33.982Z,95024.70
2024-04-24T23:25:01.598Z,95024.90
2024-04-24T23:27:29.255Z,95024.39
2024-04-24T23:29:56.883Z,95020.38
2024-04-24T23:32:24.535Z,95018.16
2024-04-24T23:34:52.517Z,95022.20
2024-04-24T23:37:20.219Z,95020.34
2024-04-24T23:39:47.928Z,95022.11
2024-04-24T23:42:15.655Z,95021.90
2024-04-24T23:44:43.348Z,95021.27
2024-04-24T23:47:11.054Z,95021.48
2024-04-24T23:49:38.714Z,95025.11
2024-04-24T23:52:06.429Z,95028.36
2024-04-24T23:54:34.111Z,95030.08
2024-04-24T23:57:01.736Z,95027.60
2024-04-24T23:59:29.351Z,95029.39
